sensor_id;sensor_type;location;lat;lon;timestamp;temperature;humidity
40053;DHT22;25758;48.200;16.338;2023-09-12T00:01:36;23.90;94.30
40053;DHT22;25758;48.200;16.338;2023-09-12T00:04:02;23.90;94.30
40053;DHT22;25758;48.200;16.338;2023-09-12T00:06:28;23.90;94.30
40053;DHT22;25758;48.200;16.338;2023-09-12T00:08:54;23.90;94.30
40053;DHT22;25758;48.200;16.338;2023-09-12T00:11:19;23.80;94.40
40053;DHT22;25758;48.200;16.338;2023-09-12T00:13:45;23.80;94.40
40053;DHT22;25758;48.200;16.338;2023-09-12T00:16:10;23.80;94.40
40053;DHT22;25758;48.200;16.338;2023-09-12T00:18:39;23.70;94.50
40053;DHT22;25758;48.200;16.338;2023-09-12T00:21:05;23.70;94.70
40053;DHT22;25758;48.200;16.338;2023-09-12T00:23:31;23.70;94.50
40053;DHT22;25758;48.200;16.338;2023-09-12T00:25:57;23.60;94.70
40053;DHT22;25758;48.200;16.338;2023-09-12T00:28:23;23.60;94.70
40053;DHT22;25758;48.200;16.338;2023-09-12T00:30:49;23.50;94.80
40053;DHT22;25758;48.200;16.338;2023-09-12T00:33:15;23.60;95.10
40053;DHT22;25758;48.200;16.338;2023-09-12T00:35:40;23.60;94.90
40053;DHT22;25758;48.200;16.338;2023-09-12T00:38:06;23.70;94.60
40053;DHT22;25758;48.200;16.338;2023-09-12T00:40:32;23.80;94.70
40053;DHT22;25758;48.200;16.338;2023-09-12T00:42:58;23.60;94.70
40053;DHT22;25758;48.200;16.338;2023-09-12T00:45:24;23.50;94.90
40053;DHT22;25758;48.200;16.338;2023-09-12T00:47:51;23.50;94.80
40053;DHT22;25758;48.200;16.338;2023-09-12T00:50:18;23.50;94.90
40053;DHT22;25758;48.200;16.338;2023-09-12T00:52:44;23.60;94.90
40053;DHT22;25758;48.200;16.338;2023-09-12T00:55:10;23.50;94.90
40053;DHT22;25758;48.200;16.338;2023-09-12T00:57:36;23.60;95.00
40053;DHT22;25758;48.200;16.338;2023-09-12T01:00:03;23.50;94.90
40053;DHT22;25758;48.200;16.338;2023-09-12T01:02:37;23.60;94.80
40053;DHT22;25758;48.200;16.338;2023-09-12T01:05:03;23.70;94.60
40053;DHT22;25758;48.200;16.338;2023-09-12T01:07:30;23.70;94.60
40053;DHT22;25758;48.200;16.338;2023-09-12T01:09:55;23.80;94.60
40053;DHT22;25758;48.200;16.338;2023-09-12T01:12:21;23.70;94.90
40053;DHT22;25758;48.200;16.338;2023-09-12T01:14:47;23.50;95.10
40053;DHT22;25758;48.200;16.338;2023-09-12T01:17:13;23.40;95.30
40053;DHT22;25758;48.200;16.338;2023-09-12T01:19:38;23.40;95.30
40053;DHT22;25758;48.200;16.338;2023-09-12T01:22:31;23.30;95.40
40053;DHT22;25758;48.200;16.338;2023-09-12T01:27:50;23.00;96.00
40053;DHT22;25758;48.200;16.338;2023-09-12T01:30:22;22.90;96.10
40053;DHT22;25758;48.200;16.338;2023-09-12T01:32:49;22.90;96.20
40053;DHT22;25758;48.200;16.338;2023-09-12T01:35:15;22.60;96.40
40053;DHT22;25758;48.200;16.338;2023-09-12T01:37:41;22.50;96.70
40053;DHT22;25758;48.200;16.338;2023-09-12T01:40:07;22.40;97.00
40053;DHT22;25758;48.200;16.338;2023-09-12T01:42:37;22.00;97.60
40053;DHT22;25758;48.200;16.338;2023-09-12T01:45:04;22.00;97.80
40053;DHT22;25758;48.200;16.338;2023-09-12T01:47:31;22.30;97.60
40053;DHT22;25758;48.200;16.338;2023-09-12T01:50:01;22.50;97.20
40053;DHT22;25758;48.200;16.338;2023-09-12T01:52:27;22.70;96.90
40053;DHT22;25758;48.200;16.338;2023-09-12T01:54:54;22.70;96.80
40053;DHT22;25758;48.200;16.338;2023-09-12T01:57:20;22.60;96.90
40053;DHT22;25758;48.200;16.338;2023-09-12T01:59:47;22.70;96.80
40053;DHT22;25758;48.200;16.338;2023-09-12T02:02:15;22.60;96.80
40053;DHT22;25758;48.200;16.338;2023-09-12T02:04:41;22.40;97.20
40053;DHT22;25758;48.200;16.338;2023-09-12T02:07:07;22.10;97.60
40053;DHT22;25758;48.200;16.338;2023-09-12T02:09:32;21.90;98.00
40053;DHT22;25758;48.200;16.338;2023-09-12T02:11:58;21.80;98.30
40053;DHT22;25758;48.200;16.338;2023-09-12T02:14:24;22.00;98.10
40053;DHT22;25758;48.200;16.338;2023-09-12T02:16:49;22.10;97.90
40053;DHT22;25758;48.200;16.338;2023-09-12T02:19:15;22.10;98.00
40053;DHT22;25758;48.200;16.338;2023-09-12T02:21:41;22.20;98.00
40053;DHT22;25758;48.200;16.338;2023-09-12T02:24:07;22.00;98.10
40053;DHT22;25758;48.200;16.338;2023-09-12T02:26:33;22.20;97.90
40053;DHT22;25758;48.200;16.338;2023-09-12T02:29:02;22.30;98.00
40053;DHT22;25758;48.200;16.338;2023-09-12T02:31:28;22.40;97.70
40053;DHT22;25758;48.200;16.338;2023-09-12T02:33:53;22.50;97.40
40053;DHT22;25758;48.200;16.338;2023-09-12T02:36:20;22.20;97.90
40053;DHT22;25758;48.200;16.338;2023-09-12T02:38:45;21.70;98.60
40053;DHT22;25758;48.200;16.338;2023-09-12T02:41:11;21.90;98.40
40053;DHT22;25758;48.200;16.338;2023-09-12T02:43:36;22.10;98.10
40053;DHT22;25758;48.200;16.338;2023-09-12T02:46:02;22.20;98.20
40053;DHT22;25758;48.200;16.338;2023-09-12T02:48:28;22.30;97.90
40053;DHT22;25758;48.200;16.338;2023-09-12T02:50:54;22.20;98.10
40053;DHT22;25758;48.200;16.338;2023-09-12T02:53:19;22.30;98.00
40053;DHT22;25758;48.200;16.338;2023-09-12T02:55:45;22.40;97.90
40053;DHT22;25758;48.200;16.338;2023-09-12T02:58:10;22.30;98.00
40053;DHT22;25758;48.200;16.338;2023-09-12T03:00:39;22.20;98.10
40053;DHT22;25758;48.200;16.338;2023-09-12T03:03:06;22.20;98.10
40053;DHT22;25758;48.200;16.338;2023-09-12T03:05:32;22.00;98.40
40053;DHT22;25758;48.200;16.338;2023-09-12T03:07:57;21.90;98.60
40053;DHT22;25758;48.200;16.338;2023-09-12T03:10:23;21.80;98.80
40053;DHT22;25758;48.200;16.338;2023-09-12T03:12:48;21.50;99.30
40053;DHT22;25758;48.200;16.338;2023-09-12T03:15:14;21.50;99.50
40053;DHT22;25758;48.200;16.338;2023-09-12T03:17:39;21.70;99.10
40053;DHT22;25758;48.200;16.338;2023-09-12T03:20:05;21.70;99.10
40053;DHT22;25758;48.200;16.338;2023-09-12T03:22:34;21.80;99.00
40053;DHT22;25758;48.200;16.338;2023-09-12T03:25:03;22.00;98.80
40053;DHT22;25758;48.200;16.338;2023-09-12T03:27:29;22.00;98.60
40053;DHT22;25758;48.200;16.338;2023-09-12T03:29:55;22.00;98.70
40053;DHT22;25758;48.200;16.338;2023-09-12T03:32:21;22.00;98.70
40053;DHT22;25758;48.200;16.338;2023-09-12T03:34:46;22.10;98.60
40053;DHT22;25758;48.200;16.338;2023-09-12T03:37:12;21.90;98.90
40053;DHT22;25758;48.200;16.338;2023-09-12T03:39:38;21.80;99.10
40053;DHT22;25758;48.200;16.338;2023-09-12T03:45:38;21.30;99.90
40053;DHT22;25758;48.200;16.338;2023-09-12T03:48:31;21.10;99.90
40053;DHT22;25758;48.200;16.338;2023-09-12T03:50:57;21.20;99.90
40053;DHT22;25758;48.200;16.338;2023-09-12T03:53:23;21.40;99.90
40053;DHT22;25758;48.200;16.338;2023-09-12T03:55:48;21.40;99.90
40053;DHT22;25758;48.200;16.338;2023-09-12T03:58:14;21.40;99.90
40053;DHT22;25758;48.200;16.338;2023-09-12T04:00:39;21.30;99.90
40053;DHT22;25758;48.200;16.338;2023-09-12T04:03:05;21.50;99.90
40053;DHT22;25758;48.200;16.338;2023-09-12T04:05:31;21.60;99.90
40053;DHT22;25758;48.200;16.338;2023-09-12T04:07:57;21.40;99.90
40053;DHT22;25758;48.200;16.338;2023-09-12T04:10:22;21.60;99.70
40053;DHT22;25758;48.200;16.338;2023-09-12T04:12:48;21.80;99.30
40053;DHT22;25758;48.200;16.338;2023-09-12T04:15:14;21.80;99.40
40053;DHT22;25758;48.200;16.338;2023-09-12T04:17:39;21.80;99.50
40053;DHT22;25758;48.200;16.338;2023-09-12T04:20:05;21.90;99.30
40053;DHT22;25758;48.200;16.338;2023-09-12T04:22:31;21.90;99.30
40053;DHT22;25758;48.200;16.338;2023-09-12T04:24:57;21.80;99.50
40053;DHT22;25758;48.200;16.338;2023-09-12T04:27:22;21.80;99.40
40053;DHT22;25758;48.200;16.338;2023-09-12T04:29:48;21.90;99.60
40053;DHT22;25758;48.200;16.338;2023-09-12T04:32:13;22.00;99.20
40053;DHT22;25758;48.200;16.338;2023-09-12T04:34:42;22.10;99.30
40053;DHT22;25758;48.200;16.338;2023-09-12T04:37:08;21.90;99.50
40053;DHT22;25758;48.200;16.338;2023-09-12T04:39:33;21.70;99.70
40053;DHT22;25758;48.200;16.338;2023-09-12T04:41:59;21.70;99.80
40053;DHT22;25758;48.200;16.338;2023-09-12T04:44:24;21.80;99.60
40053;DHT22;25758;48.200;16.338;2023-09-12T04:46:50;21.80;99.60
40053;DHT22;25758;48.200;16.338;2023-09-12T04:49:16;21.60;99.60
40053;DHT22;25758;48.200;16.338;2023-09-12T04:51:41;21.20;99.90
40053;DHT22;25758;48.200;16.338;2023-09-12T04:54:08;20.80;99.90
40053;DHT22;25758;48.200;16.338;2023-09-12T04:56:34;20.60;99.90
40053;DHT22;25758;48.200;16.338;2023-09-12T04:59:01;20.40;99.90
40053;DHT22;25758;48.200;16.338;2023-09-12T05:01:28;20.20;99.90
40053;DHT22;25758;48.200;16.338;2023-09-12T05:03:54;20.00;99.90
40053;DHT22;25758;48.200;16.338;2023-09-12T05:06:19;19.60;99.90
40053;DHT22;25758;48.200;16.338;2023-09-12T05:08:45;19.90;99.90
40053;DHT22;25758;48.200;16.338;2023-09-12T05:11:11;20.00;99.90
40053;DHT22;25758;48.200;16.338;2023-09-12T05:13:37;20.10;99.90
40053;DHT22;25758;48.200;16.338;2023-09-12T05:16:02;20.00;99.90
40053;DHT22;25758;48.200;16.338;2023-09-12T05:18:28;20.10;99.90
40053;DHT22;25758;48.200;16.338;2023-09-12T05:20:59;20.20;99.90
40053;DHT22;25758;48.200;16.338;2023-09-12T05:23:25;20.10;99.90
40053;DHT22;25758;48.200;16.338;2023-09-12T05:25:51;20.00;99.90
40053;DHT22;25758;48.200;16.338;2023-09-12T05:28:16;19.80;99.90
40053;DHT22;25758;48.200;16.338;2023-09-12T05:30:42;19.80;99.90
40053;DHT22;25758;48.200;16.338;2023-09-12T05:33:08;19.80;99.90
40053;DHT22;25758;48.200;16.338;2023-09-12T05:35:34;19.70;99.90
40053;DHT22;25758;48.200;16.338;2023-09-12T05:37:59;19.90;99.90
40053;DHT22;25758;48.200;16.338;2023-09-12T05:40:25;19.90;99.90
40053;DHT22;25758;48.200;16.338;2023-09-12T05:42:51;19.90;99.90
40053;DHT22;25758;48.200;16.338;2023-09-12T05:45:16;19.90;99.90
40053;DHT22;25758;48.200;16.338;2023-09-12T05:47:42;19.80;99.90
40053;DHT22;25758;48.200;16.338;2023-09-12T05:50:08;19.80;99.90
40053;DHT22;25758;48.200;16.338;2023-09-12T05:52:34;19.90;99.90
40053;DHT22;25758;48.200;16.338;2023-09-12T05:54:59;20.00;99.90
40053;DHT22;25758;48.200;16.338;2023-09-12T05:57:25;20.00;99.90
40053;DHT22;25758;48.200;16.338;2023-09-12T05:59:50;20.00;99.90
40053;DHT22;25758;48.200;16.338;2023-09-12T06:02:16;20.00;99.90
40053;DHT22;25758;48.200;16.338;2023-09-12T06:04:43;19.90;99.90
40053;DHT22;25758;48.200;16.338;2023-09-12T06:07:09;20.10;99.90
40053;DHT22;25758;48.200;16.338;2023-09-12T06:10:14;20.40;99.90
40053;DHT22;25758;48.200;16.338;2023-09-12T06:12:41;20.60;99.90
40053;DHT22;25758;48.200;16.338;2023-09-12T06:15:07;20.80;99.90
40053;DHT22;25758;48.200;16.338;2023-09-12T06:17:32;20.80;99.90
40053;DHT22;25758;48.200;16.338;2023-09-12T06:19:58;20.90;99.90
40053;DHT22;25758;48.200;16.338;2023-09-12T06:22:24;21.00;99.90
40053;DHT22;25758;48.200;16.338;2023-09-12T06:24:50;21.10;99.90
40053;DHT22;25758;48.200;16.338;2023-09-12T06:27:16;21.20;99.90
40053;DHT22;25758;48.200;16.338;2023-09-12T06:29:46;21.30;99.90
40053;DHT22;25758;48.200;16.338;2023-09-12T06:32:14;21.40;99.90
40053;DHT22;25758;48.200;16.338;2023-09-12T06:34:40;21.50;99.90
40053;DHT22;25758;48.200;16.338;2023-09-12T06:37:06;21.60;99.90
40053;DHT22;25758;48.200;16.338;2023-09-12T06:39:31;21.60;99.90
40053;DHT22;25758;48.200;16.338;2023-09-12T06:41:57;21.60;99.90
40053;DHT22;25758;48.200;16.338;2023-09-12T06:44:23;21.40;99.90
40053;DHT22;25758;48.200;16.338;2023-09-12T06:47:07;21.20;99.90
40053;DHT22;25758;48.200;16.338;2023-09-12T06:49:34;21.20;99.90
40053;DHT22;25758;48.200;16.338;2023-09-12T06:52:01;21.30;99.90
40053;DHT22;25758;48.200;16.338;2023-09-12T06:54:27;21.40;99.90
40053;DHT22;25758;48.200;16.338;2023-09-12T06:56:53;21.60;99.90
40053;DHT22;25758;48.200;16.338;2023-09-12T06:59:18;21.60;99.90
40053;DHT22;25758;48.200;16.338;2023-09-12T07:01:44;21.70;99.90
40053;DHT22;25758;48.200;16.338;2023-09-12T07:04:10;21.80;99.90
40053;DHT22;25758;48.200;16.338;2023-09-12T07:06:36;21.90;99.90
40053;DHT22;25758;48.200;16.338;2023-09-12T07:09:01;22.10;99.90
40053;DHT22;25758;48.200;16.338;2023-09-12T07:11:28;22.10;99.90
40053;DHT22;25758;48.200;16.338;2023-09-12T07:13:54;22.20;99.90
40053;DHT22;25758;48.200;16.338;2023-09-12T07:16:19;22.30;99.90
40053;DHT22;25758;48.200;16.338;2023-09-12T07:18:46;22.40;99.90
40053;DHT22;25758;48.200;16.338;2023-09-12T07:21:12;22.40;99.90
40053;DHT22;25758;48.200;16.338;2023-09-12T07:23:38;22.50;99.90
40053;DHT22;25758;48.200;16.338;2023-09-12T07:26:04;22.60;99.90
40053;DHT22;25758;48.200;16.338;2023-09-12T07:28:30;22.60;99.90
40053;DHT22;25758;48.200;16.338;2023-09-12T07:30:56;22.70;99.90
40053;DHT22;25758;48.200;16.338;2023-09-12T07:33:22;22.80;99.90
40053;DHT22;25758;48.200;16.338;2023-09-12T07:35:50;22.80;99.90
40053;DHT22;25758;48.200;16.338;2023-09-12T07:38:17;22.80;99.90
40053;DHT22;25758;48.200;16.338;2023-09-12T07:40:43;22.80;99.90
40053;DHT22;25758;48.200;16.338;2023-09-12T07:43:09;23.00;99.90
40053;DHT22;25758;48.200;16.338;2023-09-12T07:45:35;23.00;99.90
40053;DHT22;25758;48.200;16.338;2023-09-12T07:48:07;23.00;99.90
40053;DHT22;25758;48.200;16.338;2023-09-12T07:50:33;23.10;99.90
40053;DHT22;25758;48.200;16.338;2023-09-12T07:52:59;23.20;99.90
40053;DHT22;25758;48.200;16.338;2023-09-12T07:55:25;23.30;99.90
40053;DHT22;25758;48.200;16.338;2023-09-12T07:57:51;23.30;99.90
40053;DHT22;25758;48.200;16.338;2023-09-12T08:00:16;23.40;99.90
40053;DHT22;25758;48.200;16.338;2023-09-12T08:02:42;23.50;99.90
40053;DHT22;25758;48.200;16.338;2023-09-12T08:05:08;23.50;99.90
40053;DHT22;25758;48.200;16.338;2023-09-12T08:07:34;23.60;99.90
40053;DHT22;25758;48.200;16.338;2023-09-12T08:10:00;23.70;99.90
40053;DHT22;25758;48.200;16.338;2023-09-12T08:12:27;24.00;99.80
40053;DHT22;25758;48.200;16.338;2023-09-12T08:14:54;24.30;99.50
40053;DHT22;25758;48.200;16.338;2023-09-12T08:17:20;24.60;99.00
40053;DHT22;25758;48.200;16.338;2023-09-12T08:19:46;25.00;98.40
40053;DHT22;25758;48.200;16.338;2023-09-12T08:22:12;25.30;97.70
40053;DHT22;25758;48.200;16.338;2023-09-12T08:24:38;25.60;97.40
40053;DHT22;25758;48.200;16.338;2023-09-12T08:27:07;25.80;97.00
40053;DHT22;25758;48.200;16.338;2023-09-12T08:29:33;26.10;96.70
40053;DHT22;25758;48.200;16.338;2023-09-12T08:32:00;26.30;96.40
40053;DHT22;25758;48.200;16.338;2023-09-12T08:34:26;26.30;96.10
40053;DHT22;25758;48.200;16.338;2023-09-12T08:36:51;26.60;95.90
40053;DHT22;25758;48.200;16.338;2023-09-12T08:39:27;26.80;95.50
40053;DHT22;25758;48.200;16.338;2023-09-12T08:41:54;27.10;95.10
40053;DHT22;25758;48.200;16.338;2023-09-12T08:44:20;27.40;94.70
40053;DHT22;25758;48.200;16.338;2023-09-12T08:46:47;27.70;94.50
40053;DHT22;25758;48.200;16.338;2023-09-12T08:49:12;28.00;94.10
40053;DHT22;25758;48.200;16.338;2023-09-12T08:51:41;28.20;93.80
40053;DHT22;25758;48.200;16.338;2023-09-12T08:54:07;28.30;93.40
40053;DHT22;25758;48.200;16.338;2023-09-12T08:56:36;28.50;93.40
40053;DHT22;25758;48.200;16.338;2023-09-12T08:59:04;28.80;93.00
40053;DHT22;25758;48.200;16.338;2023-09-12T09:01:31;29.50;91.90
40053;DHT22;25758;48.200;16.338;2023-09-12T09:03:57;29.50;91.90
40053;DHT22;25758;48.200;16.338;2023-09-12T09:06:23;29.90;91.90
40053;DHT22;25758;48.200;16.338;2023-09-12T09:08:50;30.00;91.80
40053;DHT22;25758;48.200;16.338;2023-09-12T09:11:18;30.30;91.30
40053;DHT22;25758;48.200;16.338;2023-09-12T09:13:44;30.40;91.20
40053;DHT22;25758;48.200;16.338;2023-09-12T09:18:57;30.90;90.40
40053;DHT22;25758;48.200;16.338;2023-09-12T09:21:28;31.00;90.30
40053;DHT22;25758;48.200;16.338;2023-09-12T09:24:00;31.10;90.40
40053;DHT22;25758;48.200;16.338;2023-09-12T09:26:41;31.20;90.00
40053;DHT22;25758;48.200;16.338;2023-09-12T09:29:10;31.20;89.50
40053;DHT22;25758;48.200;16.338;2023-09-12T09:31:39;31.30;90.10
40053;DHT22;25758;48.200;16.338;2023-09-12T09:34:13;31.40;88.10
40053;DHT22;25758;48.200;16.338;2023-09-12T09:36:48;31.40;88.30
40053;DHT22;25758;48.200;16.338;2023-09-12T09:39:16;31.60;87.80
40053;DHT22;25758;48.200;16.338;2023-09-12T09:41:42;31.80;89.00
40053;DHT22;25758;48.200;16.338;2023-09-12T09:44:08;32.00;87.30
40053;DHT22;25758;48.200;16.338;2023-09-12T09:46:36;32.10;86.40
40053;DHT22;25758;48.200;16.338;2023-09-12T09:49:02;32.00;86.80
40053;DHT22;25758;48.200;16.338;2023-09-12T09:51:30;32.10;86.90
40053;DHT22;25758;48.200;16.338;2023-09-12T09:53:57;32.10;87.20
40053;DHT22;25758;48.200;16.338;2023-09-12T09:56:24;32.10;86.60
40053;DHT22;25758;48.200;16.338;2023-09-12T09:58:54;32.10;86.80
40053;DHT22;25758;48.200;16.338;2023-09-12T10:01:22;32.10;87.20
40053;DHT22;25758;48.200;16.338;2023-09-12T10:03:49;32.20;86.90
40053;DHT22;25758;48.200;16.338;2023-09-12T10:06:17;32.30;86.20
40053;DHT22;25758;48.200;16.338;2023-09-12T10:08:50;32.40;84.80
40053;DHT22;25758;48.200;16.338;2023-09-12T10:11:18;32.20;85.90
40053;DHT22;25758;48.200;16.338;2023-09-12T10:13:56;32.30;86.30
40053;DHT22;25758;48.200;16.338;2023-09-12T10:16:48;32.30;85.80
40053;DHT22;25758;48.200;16.338;2023-09-12T10:19:28;32.30;84.80
40053;DHT22;25758;48.200;16.338;2023-09-12T10:22:22;32.00;84.50
40053;DHT22;25758;48.200;16.338;2023-09-12T10:24:50;32.00;83.60
40053;DHT22;25758;48.200;16.338;2023-09-12T10:27:18;31.50;83.60
40053;DHT22;25758;48.200;16.338;2023-09-12T10:29:44;31.60;84.90
40053;DHT22;25758;48.200;16.338;2023-09-12T10:32:14;31.50;84.30
40053;DHT22;25758;48.200;16.338;2023-09-12T10:34:40;31.60;85.40
40053;DHT22;25758;48.200;16.338;2023-09-12T10:37:15;31.40;84.70
40053;DHT22;25758;48.200;16.338;2023-09-12T10:39:43;31.40;85.50
40053;DHT22;25758;48.200;16.338;2023-09-12T10:42:09;31.30;84.90
40053;DHT22;25758;48.200;16.338;2023-09-12T10:44:36;31.30;85.40
40053;DHT22;25758;48.200;16.338;2023-09-12T10:47:04;31.40;85.60
40053;DHT22;25758;48.200;16.338;2023-09-12T10:49:30;31.40;83.90
40053;DHT22;25758;48.200;16.338;2023-09-12T10:51:57;31.40;85.80
40053;DHT22;25758;48.200;16.338;2023-09-12T10:54:37;31.50;85.30
40053;DHT22;25758;48.200;16.338;2023-09-12T10:57:08;31.50;84.20
40053;DHT22;25758;48.200;16.338;2023-09-12T10:59:34;31.50;84.70
40053;DHT22;25758;48.200;16.338;2023-09-12T11:02:31;31.50;84.90
40053;DHT22;25758;48.200;16.338;2023-09-12T11:04:59;31.60;83.90
40053;DHT22;25758;48.200;16.338;2023-09-12T11:12:42;31.50;84.10
40053;DHT22;25758;48.200;16.338;2023-09-12T11:15:09;31.50;83.40
40053;DHT22;25758;48.200;16.338;2023-09-12T11:17:43;31.40;82.70
40053;DHT22;25758;48.200;16.338;2023-09-12T11:20:09;31.30;83.20
40053;DHT22;25758;48.200;16.338;2023-09-12T11:22:40;31.40;84.30
40053;DHT22;25758;48.200;16.338;2023-09-12T11:25:19;31.40;83.40
40053;DHT22;25758;48.200;16.338;2023-09-12T11:30:24;31.30;82.90
40053;DHT22;25758;48.200;16.338;2023-09-12T11:32:53;31.40;83.30
40053;DHT22;25758;48.200;16.338;2023-09-12T11:35:27;31.40;82.00
40053;DHT22;25758;48.200;16.338;2023-09-12T11:37:55;31.40;82.80
40053;DHT22;25758;48.200;16.338;2023-09-12T11:40:44;31.30;81.10
40053;DHT22;25758;48.200;16.338;2023-09-12T11:43:23;31.30;83.30
40053;DHT22;25758;48.200;16.338;2023-09-12T11:45:49;31.10;81.40
40053;DHT22;25758;48.200;16.338;2023-09-12T11:48:16;31.10;82.20
40053;DHT22;25758;48.200;16.338;2023-09-12T11:50:42;30.90;82.40
40053;DHT22;25758;48.200;16.338;2023-09-12T11:53:14;31.00;82.40
40053;DHT22;25758;48.200;16.338;2023-09-12T11:55:44;31.10;82.10
40053;DHT22;25758;48.200;16.338;2023-09-12T11:58:11;31.30;81.60
40053;DHT22;25758;48.200;16.338;2023-09-12T12:00:43;31.20;80.90
40053;DHT22;25758;48.200;16.338;2023-09-12T12:03:09;31.30;81.50
40053;DHT22;25758;48.200;16.338;2023-09-12T12:05:35;31.30;82.60
40053;DHT22;25758;48.200;16.338;2023-09-12T12:08:01;31.10;80.50
40053;DHT22;25758;48.200;16.338;2023-09-12T12:10:26;30.70;82.30
40053;DHT22;25758;48.200;16.338;2023-09-12T12:12:53;30.80;82.40
40053;DHT22;25758;48.200;16.338;2023-09-12T12:15:20;30.70;81.10
40053;DHT22;25758;48.200;16.338;2023-09-12T12:17:46;30.80;81.80
40053;DHT22;25758;48.200;16.338;2023-09-12T12:20:11;30.80;80.20
40053;DHT22;25758;48.200;16.338;2023-09-12T12:22:38;30.90;81.20
40053;DHT22;25758;48.200;16.338;2023-09-12T12:25:08;31.00;82.00
40053;DHT22;25758;48.200;16.338;2023-09-12T12:27:38;31.00;82.00
40053;DHT22;25758;48.200;16.338;2023-09-12T12:30:12;30.90;80.80
40053;DHT22;25758;48.200;16.338;2023-09-12T12:32:42;30.80;80.70
40053;DHT22;25758;48.200;16.338;2023-09-12T12:35:09;30.80;81.20
40053;DHT22;25758;48.200;16.338;2023-09-12T12:37:36;30.90;80.80
40053;DHT22;25758;48.200;16.338;2023-09-12T12:40:02;30.90;81.10
40053;DHT22;25758;48.200;16.338;2023-09-12T12:42:40;30.90;81.50
40053;DHT22;25758;48.200;16.338;2023-09-12T12:45:38;30.80;81.00
40053;DHT22;25758;48.200;16.338;2023-09-12T12:48:04;30.60;81.20
40053;DHT22;25758;48.200;16.338;2023-09-12T12:50:29;30.70;81.80
40053;DHT22;25758;48.200;16.338;2023-09-12T12:53:01;30.60;81.90
40053;DHT22;25758;48.200;16.338;2023-09-12T12:55:27;30.70;82.40
40053;DHT22;25758;48.200;16.338;2023-09-12T12:57:52;30.60;85.30
40053;DHT22;25758;48.200;16.338;2023-09-12T13:00:18;30.60;82.50
40053;DHT22;25758;48.200;16.338;2023-09-12T13:02:44;30.60;81.80
40053;DHT22;25758;48.200;16.338;2023-09-12T13:05:30;30.50;82.30
40053;DHT22;25758;48.200;16.338;2023-09-12T13:07:56;30.60;83.30
40053;DHT22;25758;48.200;16.338;2023-09-12T13:10:22;30.50;83.30
40053;DHT22;25758;48.200;16.338;2023-09-12T13:12:49;30.40;83.50
40053;DHT22;25758;48.200;16.338;2023-09-12T13:15:15;30.40;83.00
40053;DHT22;25758;48.200;16.338;2023-09-12T13:17:41;30.40;83.60
40053;DHT22;25758;48.200;16.338;2023-09-12T13:20:08;30.40;83.40
40053;DHT22;25758;48.200;16.338;2023-09-12T13:22:34;30.40;83.60
40053;DHT22;25758;48.200;16.338;2023-09-12T13:25:00;30.50;83.20
40053;DHT22;25758;48.200;16.338;2023-09-12T13:27:25;30.60;83.30
40053;DHT22;25758;48.200;16.338;2023-09-12T13:29:51;30.60;83.10
40053;DHT22;25758;48.200;16.338;2023-09-12T13:32:16;30.60;83.40
40053;DHT22;25758;48.200;16.338;2023-09-12T13:34:44;30.60;82.30
40053;DHT22;25758;48.200;16.338;2023-09-12T13:37:10;30.50;82.80
40053;DHT22;25758;48.200;16.338;2023-09-12T13:39:35;30.50;83.00
40053;DHT22;25758;48.200;16.338;2023-09-12T13:42:01;30.60;82.70
40053;DHT22;25758;48.200;16.338;2023-09-12T13:44:29;30.40;82.90
40053;DHT22;25758;48.200;16.338;2023-09-12T13:46:54;30.40;83.20
40053;DHT22;25758;48.200;16.338;2023-09-12T13:49:20;30.40;82.50
40053;DHT22;25758;48.200;16.338;2023-09-12T13:51:45;30.40;83.00
40053;DHT22;25758;48.200;16.338;2023-09-12T13:54:11;30.40;83.10
40053;DHT22;25758;48.200;16.338;2023-09-12T13:56:41;30.40;83.40
40053;DHT22;25758;48.200;16.338;2023-09-12T13:59:07;30.60;83.60
40053;DHT22;25758;48.200;16.338;2023-09-12T14:01:33;30.50;83.40
40053;DHT22;25758;48.200;16.338;2023-09-12T14:03:58;30.60;83.00
40053;DHT22;25758;48.200;16.338;2023-09-12T14:06:24;30.50;83.40
40053;DHT22;25758;48.200;16.338;2023-09-12T14:08:52;30.50;83.70
40053;DHT22;25758;48.200;16.338;2023-09-12T14:11:18;30.50;83.70
40053;DHT22;25758;48.200;16.338;2023-09-12T14:13:43;30.60;83.50
40053;DHT22;25758;48.200;16.338;2023-09-12T14:16:10;30.60;83.30
40053;DHT22;25758;48.200;16.338;2023-09-12T14:18:36;30.60;83.10
40053;DHT22;25758;48.200;16.338;2023-09-12T14:21:03;30.60;83.30
40053;DHT22;25758;48.200;16.338;2023-09-12T14:23:29;30.60;83.00
40053;DHT22;25758;48.200;16.338;2023-09-12T14:25:56;30.60;82.60
40053;DHT22;25758;48.200;16.338;2023-09-12T14:28:22;30.60;82.60
40053;DHT22;25758;48.200;16.338;2023-09-12T14:30:49;30.50;82.20
40053;DHT22;25758;48.200;16.338;2023-09-12T14:33:16;30.50;82.60
40053;DHT22;25758;48.200;16.338;2023-09-12T14:35:44;30.50;82.50
40053;DHT22;25758;48.200;16.338;2023-09-12T14:38:11;30.50;82.80
40053;DHT22;25758;48.200;16.338;2023-09-12T14:40:37;30.50;83.00
40053;DHT22;25758;48.200;16.338;2023-09-12T14:43:05;30.40;82.60
40053;DHT22;25758;48.200;16.338;2023-09-12T14:45:33;30.50;82.60
40053;DHT22;25758;48.200;16.338;2023-09-12T14:48:00;30.50;82.30
40053;DHT22;25758;48.200;16.338;2023-09-12T14:50:26;30.50;82.20
40053;DHT22;25758;48.200;16.338;2023-09-12T14:52:55;30.40;81.80
40053;DHT22;25758;48.200;16.338;2023-09-12T14:55:22;30.40;82.20
40053;DHT22;25758;48.200;16.338;2023-09-12T14:57:48;30.40;82.80
40053;DHT22;25758;48.200;16.338;2023-09-12T15:00:15;30.40;82.30
40053;DHT22;25758;48.200;16.338;2023-09-12T15:02:41;30.30;82.60
40053;DHT22;25758;48.200;16.338;2023-09-12T15:05:08;30.30;82.50
40053;DHT22;25758;48.200;16.338;2023-09-12T15:07:35;30.20;82.70
40053;DHT22;25758;48.200;16.338;2023-09-12T15:10:04;30.10;81.40
40053;DHT22;25758;48.200;16.338;2023-09-12T15:12:30;30.10;82.20
40053;DHT22;25758;48.200;16.338;2023-09-12T15:14:56;30.10;82.90
40053;DHT22;25758;48.200;16.338;2023-09-12T15:17:22;30.10;82.70
40053;DHT22;25758;48.200;16.338;2023-09-12T15:19:49;30.10;82.90
40053;DHT22;25758;48.200;16.338;2023-09-12T15:22:15;30.10;83.00
40053;DHT22;25758;48.200;16.338;2023-09-12T15:24:41;30.00;82.40
40053;DHT22;25758;48.200;16.338;2023-09-12T15:27:07;30.10;82.70
40053;DHT22;25758;48.200;16.338;2023-09-12T15:29:33;30.10;82.80
40053;DHT22;25758;48.200;16.338;2023-09-12T15:32:00;28.90;82.60
40053;DHT22;25758;48.200;16.338;2023-09-12T15:34:26;30.10;83.90